createdAt,value
2022-10-20T00:01:26.722Z,7.88
2022-10-20T00:03:56.958Z,7.83
2022-10-20T00:06:28.213Z,7.78
2022-10-20T00:08:58.513Z,7.74
2022-10-20T00:11:28.007Z,7.70
2022-10-20T00:13:58.110Z,7.66
2022-10-20T00:16:28.218Z,7.62
2022-10-20T00:18:57.633Z,7.59
2022-10-20T00:21:28.689Z,7.55
2022-10-20T00:24:00.826Z,7.51
2022-10-20T00:26:32.410Z,7.47
2022-10-20T00:29:04.550Z,7.43
2022-10-20T00:31:32.964Z,7.38
2022-10-20T00:34:01.062Z,7.34
2022-10-20T00:36:29.421Z,7.28
2022-10-20T00:39:00.094Z,7.22
2022-10-20T00:41:29.644Z,7.18
2022-10-20T00:44:03.502Z,7.16
2022-10-20T00:46:41.672Z,7.14
2022-10-20T00:49:21.015Z,7.11
2022-10-20T00:51:51.386Z,7.09
2022-10-20T00:54:24.718Z,7.09
2022-10-20T00:56:56.864Z,7.08
2022-10-20T00:59:30.235Z,7.07
2022-10-20T01:02:01.803Z,7.05
2022-10-20T01:04:31.750Z,7.03
2022-10-20T01:07:00.359Z,7.00
2022-10-20T01:09:29.187Z,6.98
2022-10-20T01:12:08.620Z,6.97
2022-10-20T01:15:03.257Z,6.93
2022-10-20T01:17:46.686Z,6.88
2022-10-20T01:20:29.972Z,6.83
2022-10-20T01:22:58.146Z,6.81
2022-10-20T01:25:32.208Z,6.80
2022-10-20T01:28:15.313Z,6.78
2022-10-20T01:30:53.527Z,6.77
2022-10-20T01:33:44.226Z,6.76
2022-10-20T01:36:24.664Z,6.74
2022-10-20T01:39:01.811Z,6.72
2022-10-20T01:41:54.011Z,6.70
2022-10-20T01:44:27.201Z,6.67
2022-10-20T01:46:57.366Z,6.64
2022-10-20T01:49:26.596Z,6.60
2022-10-20T01:51:56.476Z,6.57
2022-10-20T01:54:30.182Z,6.52
2022-10-20T01:57:17.037Z,6.50
2022-10-20T02:00:07.326Z,6.48
2022-10-20T02:02:43.386Z,6.47
2022-10-20T02:05:41.357Z,6.46
2022-10-20T02:08:24.879Z,6.46
2022-10-20T02:10:57.939Z,6.45
2022-10-20T02:13:28.662Z,6.43
2022-10-20T02:16:01.344Z,6.40
2022-10-20T02:18:34.794Z,6.37
2022-10-20T02:21:04.377Z,6.36
2022-10-20T02:23:37.434Z,6.37
2022-10-20T02:26:07.981Z,6.39
2022-10-20T02:28:41.121Z,6.41
2022-10-20T02:31:10.284Z,6.40
2022-10-20T02:33:39.798Z,6.38
2022-10-20T02:36:15.079Z,6.34
2022-10-20T02:38:43.513Z,6.30
2022-10-20T02:41:12.227Z,6.28
2022-10-20T02:43:40.326Z,6.25
2022-10-20T02:46:08.408Z,6.21
2022-10-20T02:48:38.558Z,6.15
2022-10-20T02:51:06.923Z,6.07
2022-10-20T02:53:34.988Z,6.02
2022-10-20T02:56:03.229Z,5.99
2022-10-20T02:58:31.679Z,5.99
2022-10-20T03:00:59.650Z,5.98
2022-10-20T03:03:27.920Z,5.96
2022-10-20T03:05:56.512Z,5.92
2022-10-20T03:08:24.602Z,5.89
2022-10-20T03:10:52.910Z,5.87
2022-10-20T03:13:21.325Z,5.86
2022-10-20T03:15:49.582Z,5.86
2022-10-20T03:18:17.937Z,5.84
2022-10-20T03:20:46.356Z,5.83
2022-10-20T03:23:17.743Z,5.79
2022-10-20T03:25:48.773Z,5.76
2022-10-20T03:28:17.681Z,5.74
2022-10-20T03:30:47.570Z,5.73
2022-10-20T03:33:16.250Z,5.74
2022-10-20T03:35:44.746Z,5.76
2022-10-20T03:38:13.134Z,5.81
2022-10-20T03:40:42.314Z,5.83
2022-10-20T03:43:10.981Z,5.83
2022-10-20T03:45:39.291Z,5.81
2022-10-20T03:48:07.324Z,5.80
2022-10-20T03:50:37.797Z,5.81
2022-10-20T03:53:05.893Z,5.80
2022-10-20T03:55:34.565Z,5.79
2022-10-20T03:58:03.216Z,5.76
2022-10-20T04:00:31.782Z,5.75
2022-10-20T04:03:00.118Z,5.73
2022-10-20T04:05:28.675Z,5.69
2022-10-20T04:07:57.444Z,5.65
2022-10-20T04:10:25.994Z,5.59
2022-10-20T04:12:58.603Z,5.55
2022-10-20T04:15:26.619Z,5.49
2022-10-20T04:17:54.858Z,5.44
2022-10-20T04:20:23.128Z,5.41
2022-10-20T04:22:51.431Z,5.42
2022-10-20T04:25:20.471Z,5.43
2022-10-20T04:27:48.968Z,5.44
2022-10-20T04:30:17.465Z,5.44
2022-10-20T04:32:45.542Z,5.44
2022-10-20T04:35:13.944Z,5.41
2022-10-20T04:37:42.151Z,5.35
2022-10-20T04:40:10.692Z,5.33
2022-10-20T04:42:38.590Z,5.31
2022-10-20T04:45:07.136Z,5.30
2022-10-20T04:47:38.133Z,5.29
2022-10-20T04:50:07.150Z,5.29
2022-10-20T04:52:35.492Z,5.29
2022-10-20T04:55:04.114Z,5.27
2022-10-20T04:57:32.423Z,5.23
2022-10-20T05:00:00.842Z,5.19
2022-10-20T05:02:30.679Z,5.15
2022-10-20T05:04:59.201Z,5.12
2022-10-20T05:07:30.847Z,5.11
2022-10-20T05:09:59.281Z,5.12
2022-10-20T05:12:28.832Z,5.15
2022-10-20T05:14:56.985Z,5.21
2022-10-20T05:17:25.223Z,5.28
2022-10-20T05:19:53.513Z,5.36
2022-10-20T05:22:21.653Z,5.45
2022-10-20T05:24:49.966Z,5.64
2022-10-20T05:27:17.676Z,6.07
2022-10-20T05:29:45.503Z,6.59
2022-10-20T05:32:13.596Z,7.05
2022-10-20T05:34:42.073Z,7.45
2022-10-20T05:37:10.029Z,7.81
2022-10-20T05:39:38.316Z,8.09
2022-10-20T05:42:06.526Z,8.40
2022-10-20T05:44:35.028Z,8.69
2022-10-20T05:47:03.616Z,8.84
2022-10-20T05:49:32.069Z,8.85
2022-10-20T05:52:00.174Z,8.71
2022-10-20T05:54:28.360Z,8.63
2022-10-20T05:56:56.832Z,8.62
2022-10-20T05:59:25.266Z,8.83
2022-10-20T06:01:53.578Z,9.27
2022-10-20T06:04:24.102Z,9.64
2022-10-20T06:06:53.505Z,9.93
2022-10-20T06:09:23.080Z,10.10
2022-10-20T06:11:56.107Z,10.32
2022-10-20T06:14:26.271Z,10.49
2022-10-20T06:16:56.405Z,10.73
2022-10-20T06:19:27.178Z,10.80
2022-10-20T06:21:56.275Z,11.06
2022-10-20T06:24:24.945Z,11.14
2022-10-20T06:26:54.860Z,11.03
2022-10-20T06:29:23.463Z,10.84
2022-10-20T06:31:52.152Z,10.85
2022-10-20T06:34:25.932Z,11.05
2022-10-20T06:36:54.490Z,10.94
2022-10-20T06:39:24.820Z,11.07
2022-10-20T06:41:59.809Z,11.07
2022-10-20T06:44:33.037Z,10.85
2022-10-20T06:47:01.623Z,11.12
2022-10-20T06:49:30.410Z,11.29
2022-10-20T06:51:59.029Z,11.41
2022-10-20T06:54:27.550Z,11.33
2022-10-20T06:56:56.177Z,11.05
2022-10-20T06:59:25.054Z,10.74
2022-10-20T07:01:53.524Z,10.68
2022-10-20T07:04:21.631Z,10.47
2022-10-20T07:06:50.343Z,10.65
2022-10-20T07:09:21.005Z,10.62
2022-10-20T07:11:53.312Z,10.33
2022-10-20T07:14:22.204Z,10.28
2022-10-20T07:16:51.027Z,10.60
2022-10-20T07:19:19.921Z,10.62
2022-10-20T07:21:48.683Z,10.75
2022-10-20T07:24:17.404Z,11.02
2022-10-20T07:26:46.099Z,11.04
2022-10-20T07:29:15.032Z,10.96
2022-10-20T07:31:48.243Z,10.77
2022-10-20T07:34:27.454Z,10.79
2022-10-20T07:36:58.746Z,10.56
2022-10-20T07:39:29.070Z,10.57
2022-10-20T07:41:57.452Z,10.39
2022-10-20T07:44:25.765Z,10.10
2022-10-20T07:46:54.211Z,9.92
2022-10-20T07:52:12.044Z,9.57
2022-10-20T07:54:40.475Z,9.51
2022-10-20T07:57:08.830Z,9.44
2022-10-20T07:59:38.118Z,9.44
2022-10-20T08:02:06.606Z,9.59
2022-10-20T08:04:36.947Z,9.60
2022-10-20T08:07:06.258Z,9.44
2022-10-20T08:09:34.642Z,9.27
2022-10-20T08:12:04.343Z,9.16
2022-10-20T08:14:35.219Z,9.18
2022-10-20T08:17:04.786Z,9.15
2022-10-20T08:22:16.291Z,9.25
2022-10-20T08:24:44.832Z,9.20
2022-10-20T08:27:13.803Z,9.26
2022-10-20T08:29:47.710Z,9.29
2022-10-20T08:32:23.410Z,9.31
2022-10-20T08:34:51.482Z,9.40
2022-10-20T08:37:19.932Z,9.45
2022-10-20T08:39:48.371Z,9.50
2022-10-20T08:42:17.768Z,9.41
2022-10-20T08:44:47.910Z,9.37
2022-10-20T08:47:27.862Z,9.44
2022-10-20T08:50:00.352Z,9.53
2022-10-20T08:52:29.059Z,9.52
2022-10-20T08:54:58.847Z,9.48
2022-10-20T08:57:34.760Z,9.51
2022-10-20T09:00:23.701Z,9.69
2022-10-20T09:02:52.712Z,9.79
2022-10-20T09:05:26.023Z,9.67
2022-10-20T09:07:55.340Z,9.69
2022-10-20T09:10:41.695Z,9.81
2022-10-20T09:13:21.403Z,9.79
2022-10-20T09:16:03.849Z,9.82
2022-10-20T09:18:34.482Z,9.79
2022-10-20T09:21:17.116Z,9.87
2022-10-20T09:23:48.882Z,9.92
2022-10-20T09:29:39.395Z,10.00
2022-10-20T09:32:45.470Z,10.08
2022-10-20T09:35:20.448Z,10.15
2022-10-20T09:37:55.058Z,10.13
2022-10-20T09:40:26.518Z,10.12
2022-10-20T09:43:00.034Z,10.16
2022-10-20T09:45:31.630Z,10.22
2022-10-20T09:48:17.532Z,10.24
2022-10-20T09:50:50.231Z,10.25
2022-10-20T09:53:22.694Z,10.32
2022-10-20T09:55:52.428Z,10.30
2022-10-20T09:58:34.112Z,10.25
2022-10-20T10:01:07.240Z,10.16
2022-10-20T10:04:01.874Z,9.93
2022-10-20T10:06:43.540Z,9.87
2022-10-20T10:09:34.417Z,9.97
2022-10-20T10:12:21.033Z,10.06
2022-10-20T10:15:08.384Z,10.14
2022-10-20T10:17:43.626Z,10.27
2022-10-20T10:20:11.942Z,10.37
2022-10-20T10:22:41.610Z,10.42
2022-10-20T10:25:28.373Z,10.54
2022-10-20T10:28:09.140Z,10.70
2022-10-20T10:30:38.989Z,10.67
2022-10-20T10:33:27.082Z,10.65
2022-10-20T10:35:56.465Z,10.61
2022-10-20T10:38:25.630Z,10.60
2022-10-20T10:41:12.498Z,10.66
2022-10-20T10:43:48.836Z,10.63
2022-10-20T10:46:28.031Z,10.64
2022-10-20T10:49:32.493Z,10.56
2022-10-20T10:52:23.577Z,10.51
2022-10-20T10:55:06.363Z,10.56
2022-10-20T10:57:53.562Z,10.56
2022-10-20T11:00:50.249Z,10.57
2022-10-20T11:03:34.061Z,10.65
2022-10-20T11:06:16.746Z,10.73
2022-10-20T11:09:33.273Z,10.74
2022-10-20T11:12:32.743Z,10.88
2022-10-20T11:15:19.485Z,10.89
2022-10-20T11:18:14.756Z,10.87
2022-10-20T11:20:46.561Z,10.77
2022-10-20T11:23:39.808Z,10.69
2022-10-20T11:26:35.801Z,10.64
2022-10-20T11:29:16.391Z,10.61
2022-10-20T11:32:04.939Z,10.68
2022-10-20T11:34:38.451Z,10.72
2022-10-20T11:37:20.473Z,10.73
2022-10-20T11:40:12.135Z,10.75
2022-10-20T11:42:55.463Z,10.89
2022-10-20T11:45:39.160Z,10.90
2022-10-20T11:48:13.620Z,10.89
2022-10-20T11:50:48.347Z,10.94
2022-10-20T11:53:39.568Z,10.85
2022-10-20T11:56:13.802Z,10.84
2022-10-20T11:59:01.824Z,10.83
2022-10-20T12:01:58.025Z,10.86
2022-10-20T12:05:10.073Z,10.89
2022-10-20T12:07:48.643Z,10.91
2022-10-20T12:10:24.968Z,10.97
2022-10-20T12:13:31.153Z,11.04
2022-10-20T12:16:00.039Z,11.08
2022-10-20T12:18:33.710Z,11.13
2022-10-20T12:21:08.388Z,11.12
2022-10-20T12:23:43.155Z,11.19
2022-10-20T12:26:30.377Z,11.22
2022-10-20T12:29:01.292Z,11.20
2022-10-20T12:32:07.737Z,11.11
2022-10-20T12:34:42.187Z,11.12
2022-10-20T12:37:26.678Z,11.14
2022-10-20T12:39:57.413Z,11.18
2022-10-20T12:42:36.888Z,11.15
2022-10-20T12:45:09.717Z,11.12
2022-10-20T12:47:38.593Z,11.16
2022-10-20T12:50:19.919Z,11.11
2022-10-20T12:52:49.569Z,11.10
2022-10-20T12:55:25.663Z,11.14
2022-10-20T12:58:18.024Z,11.17
2022-10-20T13:00:46.567Z,11.20
2022-10-20T13:03:39.248Z,11.14
2022-10-20T13:06:24.396Z,11.14
2022-10-20T13:09:04.030Z,11.15
2022-10-20T13:11:53.080Z,11.10
2022-10-20T13:14:28.062Z,11.11
2022-10-20T13:17:17.827Z,11.04
2022-10-20T13:20:01.389Z,10.93
2022-10-20T13:22:45.255Z,10.85
2022-10-20T13:25:29.968Z,10.88
2022-10-20T13:28:04.473Z,10.87
2022-10-20T13:30:36.141Z,10.80
2022-10-20T13:33:33.889Z,10.74
2022-10-20T13:36:16.130Z,10.75
2022-10-20T13:39:26.434Z,10.80
2022-10-20T13:42:05.511Z,10.81
2022-10-20T13:44:48.733Z,10.77
2022-10-20T13:47:40.282Z,10.75
2022-10-20T13:50:16.603Z,10.72
2022-10-20T13:52:50.300Z,10.71
2022-10-20T13:55:26.392Z,10.72
2022-10-20T13:57:57.846Z,10.76
2022-10-20T14:00:30.560Z,10.74
2022-10-20T14:03:15.184Z,10.67
2022-10-20T14:05:43.508Z,10.67
2022-10-20T14:08:17.127Z,10.68
2022-10-20T14:10:56.431Z,10.68
2022-10-20T14:13:34.574Z,10.65
2022-10-20T14:16:07.626Z,10.63
2022-10-20T14:18:40.626Z,10.58
2022-10-20T14:21:20.202Z,10.56
2022-10-20T14:23:51.597Z,10.54
2022-10-20T14:26:23.031Z,10.48
2022-10-20T14:28:53.885Z,10.46
2022-10-20T14:31:24.665Z,10.45
2022-10-20T14:33:53.909Z,10.44
2022-10-20T14:36:31.595Z,10.42
2022-10-20T14:39:01.487Z,10.37
2022-10-20T14:41:33.420Z,10.35
2022-10-20T14:44:16.260Z,10.32
2022-10-20T14:46:53.588Z,10.28
2022-10-20T14:49:32.744Z,10.25
2022-10-20T14:52:06.282Z,10.19
2022-10-20T14:54:39.586Z,10.15
2022-10-20T14:57:08.218Z,10.12
2022-10-20T15:00:06.376Z,10.07
2022-10-20T15:02:40.861Z,10.02
2022-10-20T15:05:36.746Z,9.98
2022-10-20T15:08:17.475Z,9.93
2022-10-20T15:10:46.836Z,9.87
2022-10-20T15:13:27.690Z,9.82
2022-10-20T15:15:59.988Z,9.75
2022-10-20T15:18:29.691Z,9.68
2022-10-20T15:20:58.135Z,9.63
2022-10-20T15:23:28.320Z,9.58
2022-10-20T15:26:07.094Z,9.55
2022-10-20T15:28:47.144Z,9.49
2022-10-20T15:31:27.043Z,9.45
2022-10-20T15:33:56.928Z,9.41
2022-10-20T15:36:33.689Z,9.32
2022-10-20T15:39:02.423Z,9.21
2022-10-20T15:41:33.676Z,9.15
2022-10-20T15:44:22.331Z,9.10
2022-10-20T15:46:55.112Z,9.00
2022-10-20T15:49:23.968Z,8.90
2022-10-20T15:51:52.140Z,8.81
2022-10-20T15:54:22.690Z,8.76
2022-10-20T15:56:51.246Z,8.70
2022-10-20T15:59:19.287Z,8.64
2022-10-20T16:01:47.697Z,8.58
2022-10-20T16:04:18.362Z,8.50
2022-10-20T16:06:47.339Z,8.40
2022-10-20T16:09:16.332Z,8.32
2022-10-20T16:11:45.593Z,8.24
2022-10-20T16:14:15.712Z,8.17
2022-10-20T16:16:45.268Z,8.13
2022-10-20T16:19:14.010Z,8.11
2022-10-20T16:21:42.399Z,8.07
2022-10-20T16:24:11.642Z,8.02
2022-10-20T16:26:40.314Z,7.96
2022-10-20T16:29:08.416Z,7.91
2022-10-20T16:31:36.770Z,7.85
2022-10-20T16:34:05.121Z,7.75
2022-10-20T16:36:33.974Z,7.65
2022-10-20T16:39:02.463Z,7.54
2022-10-20T16:41:30.648Z,7.44
2022-10-20T16:44:01.066Z,7.36
2022-10-20T16:46:29.973Z,7.29
2022-10-20T16:48:58.027Z,7.22
2022-10-20T16:51:26.268Z,7.15
2022-10-20T16:53:57.320Z,7.07
2022-10-20T16:56:27.823Z,6.98
2022-10-20T16:58:56.228Z,6.91
2022-10-20T17:01:24.999Z,6.81
2022-10-20T17:03:53.800Z,6.74
2022-10-20T17:06:24.653Z,6.68
2022-10-20T17:08:54.265Z,6.60
2022-10-20T17:11:25.685Z,6.49
2022-10-20T17:13:54.128Z,6.38
2022-10-20T17:16:31.515Z,6.28
2022-10-20T17:19:02.670Z,6.20
2022-10-20T17:21:33.639Z,6.18
2022-10-20T17:24:02.585Z,6.13
2022-10-20T17:26:31.670Z,6.11
2022-10-20T17:29:01.325Z,6.08
2022-10-20T17:31:30.231Z,6.05
2022-10-20T17:33:59.376Z,6.02
2022-10-20T17:36:28.789Z,5.95
2022-10-20T17:39:02.946Z,5.85
2022-10-20T17:41:31.026Z,5.73
2022-10-20T17:44:00.910Z,5.61
2022-10-20T17:46:29.153Z,5.50
2022-10-20T17:48:57.231Z,5.41
2022-10-20T17:51:28.969Z,5.33
2022-10-20T17:53:59.892Z,5.26
2022-10-20T17:56:35.898Z,5.19
2022-10-20T17:59:06.590Z,5.14
2022-10-20T18:01:38.676Z,5.12
2022-10-20T18:04:10.431Z,5.10
2022-10-20T18:06:39.679Z,5.08
2022-10-20T18:09:13.328Z,5.07
2022-10-20T18:11:48.301Z,5.06
2022-10-20T18:14:17.321Z,5.06
2022-10-20T18:16:46.178Z,5.04
2022-10-20T18:19:17.960Z,5.04
2022-10-20T18:21:47.105Z,5.00
2022-10-20T18:24:18.045Z,4.99
2022-10-20T18:26:46.913Z,4.98
2022-10-20T18:29:16.371Z,4.95
2022-10-20T18:31:46.214Z,4.92
2022-10-20T18:34:17.490Z,4.87
2022-10-20T18:36:46.373Z,4.79
2022-10-20T18:39:15.810Z,4.72
2022-10-20T18:41:45.816Z,4.66
2022-10-20T18:44:16.997Z,4.60
2022-10-20T18:46:47.442Z,4.58
2022-10-20T18:49:19.813Z,4.57
2022-10-20T18:51:48.410Z,4.54
2022-10-20T18:54:19.146Z,4.52
2022-10-20T18:56:47.477Z,4.50
2022-10-20T18:59:17.299Z,4.47
2022-10-20T19:01:46.089Z,4.45
2022-10-20T19:04:14.330Z,4.43
2022-10-20T19:06:45.391Z,4.40
2022-10-20T19:09:19.721Z,4.35
2022-10-20T19:14:18.805Z,4.26
2022-10-20T19:16:48.798Z,4.20
2022-10-20T19:19:16.770Z,4.12
2022-10-20T19:21:45.237Z,4.04
2022-10-20T19:24:20.165Z,3.97
2022-10-20T19:26:57.559Z,3.90
2022-10-20T19:29:37.273Z,3.82
2022-10-20T19:32:06.682Z,3.79
2022-10-20T19:34:37.880Z,3.77
2022-10-20T19:37:06.516Z,3.75
2022-10-20T19:39:38.854Z,3.74
2022-10-20T19:42:08.881Z,3.71
2022-10-20T19:44:37.898Z,3.71
2022-10-20T19:47:08.258Z,3.71
2022-10-20T19:49:37.891Z,3.71
2022-10-20T19:52:07.934Z,3.71
2022-10-20T19:54:36.227Z,3.70
2022-10-20T19:57:06.346Z,3.68
2022-10-20T19:59:34.365Z,3.64
2022-10-20T20:02:02.373Z,3.59
2022-10-20T20:04:30.618Z,3.52
2022-10-20T20:07:02.153Z,3.46
2022-10-20T20:09:31.369Z,3.39
2022-10-20T20:11:59.439Z,3.32
2022-10-20T20:14:28.275Z,3.25
2022-10-20T20:16:56.408Z,3.19
2022-10-20T20:19:24.516Z,3.14
2022-10-20T20:21:52.848Z,3.10
2022-10-20T20:24:20.768Z,3.08
2022-10-20T20:26:48.744Z,3.08
2022-10-20T20:29:16.811Z,3.08
2022-10-20T20:31:45.017Z,3.08
2022-10-20T20:34:13.047Z,3.07
2022-10-20T20:36:41.038Z,3.08
2022-10-20T20:39:09.221Z,3.08
2022-10-20T20:41:37.100Z,3.07
2022-10-20T20:44:08.343Z,3.04
2022-10-20T20:46:37.307Z,3.00
2022-10-20T20:49:06.123Z,2.96
2022-10-20T20:51:34.459Z,2.89
2022-10-20T20:54:05.203Z,2.84
2022-10-20T20:56:33.052Z,2.77
2022-10-20T20:59:01.006Z,2.71
2022-10-20T21:01:34.177Z,2.64
2022-10-20T21:04:05.274Z,2.58
2022-10-20T21:06:49.338Z,2.52
2022-10-20T21:09:21.673Z,2.47
2022-10-20T21:11:49.710Z,2.43
2022-10-20T21:14:18.202Z,2.40
2022-10-20T21:16:46.611Z,2.38
2022-10-20T21:19:14.991Z,2.38
2022-10-20T21:21:50.323Z,2.38
2022-10-20T21:24:18.726Z,2.37
2022-10-20T21:26:47.197Z,2.37
2022-10-20T21:29:15.122Z,2.38
2022-10-20T21:31:43.594Z,2.37
2022-10-20T21:34:11.916Z,2.35
2022-10-20T21:36:40.302Z,2.33
2022-10-20T21:39:12.394Z,2.30
2022-10-20T21:41:40.743Z,2.25
2022-10-20T21:44:10.035Z,2.20
2022-10-20T21:46:47.771Z,2.14
2022-10-20T21:49:19.391Z,2.08
2022-10-20T21:51:50.769Z,2.01
2022-10-20T21:56:49.885Z,1.89
2022-10-20T21:59:20.094Z,1.83
2022-10-20T22:01:48.849Z,1.77
2022-10-20T22:04:22.551Z,1.73
2022-10-20T22:06:50.760Z,1.70
2022-10-20T22:09:19.404Z,1.69
2022-10-20T22:11:51.797Z,1.69
2022-10-20T22:14:20.234Z,1.69
2022-10-20T22:16:48.762Z,1.71
2022-10-20T22:19:19.984Z,1.72
2022-10-20T22:21:50.076Z,1.73
2022-10-20T22:24:19.870Z,1.74
2022-10-20T22:26:49.524Z,1.76
2022-10-20T22:29:19.021Z,1.76
2022-10-20T22:31:47.507Z,1.75
2022-10-20T22:34:15.898Z,1.74
2022-10-20T22:36:44.683Z,1.71
2022-10-20T22:39:14.118Z,1.68
2022-10-20T22:41:42.206Z,1.65
2022-10-20T22:44:10.958Z,1.62
2022-10-20T22:46:39.186Z,1.59
2022-10-20T22:49:07.660Z,1.56
2022-10-20T22:51:36.121Z,1.54
2022-10-20T22:54:04.469Z,1.53
2022-10-20T22:56:32.676Z,1.52
2022-10-20T22:59:00.955Z,1.52
2022-10-20T23:01:29.034Z,1.52
2022-10-20T23:03:56.951Z,1.52
2022-10-20T23:06:26.707Z,1.53
2022-10-20T23:08:56.465Z,1.52
2022-10-20T23:11:25.091Z,1.52
2022-10-20T23:13:53.444Z,1.51
2022-10-20T23:16:21.936Z,1.48
2022-10-20T23:18:49.979Z,1.44
2022-10-20T23:21:18.768Z,1.39
2022-10-20T23:23:47.091Z,1.34
2022-10-20T23:26:15.427Z,1.29
2022-10-20T23:28:43.595Z,1.23
2022-10-20T23:31:14.449Z,1.16
2022-10-20T23:33:44.601Z,1.10
2022-10-20T23:36:14.571Z,1.04
2022-10-20T23:38:44.003Z,0.97
2022-10-20T23:41:12.233Z,0.90
2022-10-20T23:43:40.731Z,0.84
2022-10-20T23:46:09.752Z,0.80
2022-10-20T23:48:38.404Z,0.78
2022-10-20T23:51:07.449Z,0.75
2022-10-20T23:53:35.689Z,0.74
2022-10-20T23:56:04.275Z,0.74
2022-10-20T23:58:32.209Z,0.76
